sensor_id;sensor_type;location;lat;lon;timestamp;pressure;altitude;pressure_sealevel;temperature;humidity
27888;BME280;15237;49.608;7.170;2022-12-10T00:00:21;965.91;;;18.77;38.70
27888;BME280;15237;49.608;7.170;2022-12-10T00:01:58;965.88;;;18.80;38.64
27888;BME280;15237;49.608;7.170;2022-12-10T00:02:43;965.88;;;18.75;38.73
27888;BME280;15237;49.608;7.170;2022-12-10T00:03:27;965.87;;;18.74;38.75
27888;BME280;15237;49.608;7.170;2022-12-10T00:04:16;965.88;;;18.78;38.69
27888;BME280;15237;49.608;7.170;2022-12-10T00:05:00;965.91;;;18.78;38.66
27888;BME280;15237;49.608;7.170;2022-12-10T00:05:45;965.91;;;18.80;38.64
27888;BME280;15237;49.608;7.170;2022-12-10T00:06:28;965.89;;;18.78;38.66
27888;BME280;15237;49.608;7.170;2022-12-10T00:07:12;965.88;;;18.73;38.75
27888;BME280;15237;49.608;7.170;2022-12-10T00:07:56;965.88;;;18.73;38.75
27888;BME280;15237;49.608;7.170;2022-12-10T00:08:39;965.87;;;18.75;38.72
27888;BME280;15237;49.608;7.170;2022-12-10T00:09:25;965.88;;;18.72;38.75
27888;BME280;15237;49.608;7.170;2022-12-10T00:10:10;965.89;;;18.76;38.68
27888;BME280;15237;49.608;7.170;2022-12-10T00:10:53;965.88;;;18.73;38.75
27888;BME280;15237;49.608;7.170;2022-12-10T00:11:39;965.91;;;18.67;38.83
27888;BME280;15237;49.608;7.170;2022-12-10T00:12:30;965.90;;;18.72;38.75
27888;BME280;15237;49.608;7.170;2022-12-10T00:13:09;965.90;;;18.69;38.80
27888;BME280;15237;49.608;7.170;2022-12-10T00:13:53;965.93;;;18.73;38.73
27888;BME280;15237;49.608;7.170;2022-12-10T00:14:39;965.93;;;18.76;38.69
27888;BME280;15237;49.608;7.170;2022-12-10T00:15:23;965.90;;;18.74;38.71
27888;BME280;15237;49.608;7.170;2022-12-10T00:16:01;965.92;;;18.72;38.74
27888;BME280;15237;49.608;7.170;2022-12-10T00:16:46;965.91;;;18.69;38.81
27888;BME280;15237;49.608;7.170;2022-12-10T00:17:29;965.94;;;18.70;38.78
27888;BME280;15237;49.608;7.170;2022-12-10T00:18:12;965.93;;;18.71;38.76
27888;BME280;15237;49.608;7.170;2022-12-10T00:19:02;965.93;;;18.65;38.88
27888;BME280;15237;49.608;7.170;2022-12-10T00:19:45;965.91;;;18.65;38.87
27888;BME280;15237;49.608;7.170;2022-12-10T00:20:24;965.93;;;18.71;38.77
27888;BME280;15237;49.608;7.170;2022-12-10T00:21:09;965.91;;;18.66;38.83
27888;BME280;15237;49.608;7.170;2022-12-10T00:21:51;965.90;;;18.66;38.85
27888;BME280;15237;49.608;7.170;2022-12-10T00:22:35;965.89;;;18.65;38.84
27888;BME280;15237;49.608;7.170;2022-12-10T00:23:20;965.90;;;18.67;38.83
27888;BME280;15237;49.608;7.170;2022-12-10T00:24:01;965.90;;;18.66;38.86
27888;BME280;15237;49.608;7.170;2022-12-10T00:24:44;965.89;;;18.66;38.85
27888;BME280;15237;49.608;7.170;2022-12-10T00:25:28;965.90;;;18.64;38.90
27888;BME280;15237;49.608;7.170;2022-12-10T00:26:16;965.88;;;18.69;38.80
27888;BME280;15237;49.608;7.170;2022-12-10T00:27:00;965.89;;;18.66;38.84
27888;BME280;15237;49.608;7.170;2022-12-10T00:27:44;965.88;;;18.68;38.81
27888;BME280;15237;49.608;7.170;2022-12-10T00:28:29;965.91;;;18.67;38.83
27888;BME280;15237;49.608;7.170;2022-12-10T00:29:14;965.89;;;18.70;38.74
27888;BME280;15237;49.608;7.170;2022-12-10T00:30:02;965.90;;;18.68;38.80
27888;BME280;15237;49.608;7.170;2022-12-10T00:30:48;965.89;;;18.61;38.91
27888;BME280;15237;49.608;7.170;2022-12-10T00:31:36;965.87;;;18.62;38.88
27888;BME280;15237;49.608;7.170;2022-12-10T00:32:19;965.88;;;18.65;38.82
27888;BME280;15237;49.608;7.170;2022-12-10T00:33:01;965.87;;;18.64;38.85
27888;BME280;15237;49.608;7.170;2022-12-10T00:33:45;965.85;;;18.60;38.94
27888;BME280;15237;49.608;7.170;2022-12-10T00:34:27;965.85;;;18.59;38.96
27888;BME280;15237;49.608;7.170;2022-12-10T00:35:13;965.85;;;18.59;38.94
27888;BME280;15237;49.608;7.170;2022-12-10T00:35:55;965.86;;;18.57;38.98
27888;BME280;15237;49.608;7.170;2022-12-10T00:36:42;965.87;;;18.55;39.02
27888;BME280;15237;49.608;7.170;2022-12-10T00:37:23;965.87;;;18.57;38.97
27888;BME280;15237;49.608;7.170;2022-12-10T00:38:06;965.87;;;18.52;39.08
27888;BME280;15237;49.608;7.170;2022-12-10T00:39:36;965.87;;;18.56;39.01
27888;BME280;15237;49.608;7.170;2022-12-10T00:40:21;965.87;;;18.63;38.90
27888;BME280;15237;49.608;7.170;2022-12-10T00:41:03;965.87;;;18.62;38.89
27888;BME280;15237;49.608;7.170;2022-12-10T00:41:49;965.91;;;18.62;38.90
27888;BME280;15237;49.608;7.170;2022-12-10T00:42:34;965.90;;;18.58;38.96
27888;BME280;15237;49.608;7.170;2022-12-10T00:43:15;965.90;;;18.58;38.95
27888;BME280;15237;49.608;7.170;2022-12-10T00:43:57;965.90;;;18.54;39.03
27888;BME280;15237;49.608;7.170;2022-12-10T00:44:40;965.91;;;18.54;39.05
27888;BME280;15237;49.608;7.170;2022-12-10T00:45:21;965.91;;;18.55;39.02
27888;BME280;15237;49.608;7.170;2022-12-10T00:46:03;965.89;;;18.54;39.02
27888;BME280;15237;49.608;7.170;2022-12-10T00:46:49;965.90;;;18.54;39.02
27888;BME280;15237;49.608;7.170;2022-12-10T00:47:33;965.89;;;18.55;39.00
27888;BME280;15237;49.608;7.170;2022-12-10T00:48:14;965.88;;;18.52;39.05
27888;BME280;15237;49.608;7.170;2022-12-10T00:48:53;965.86;;;18.55;39.01
27888;BME280;15237;49.608;7.170;2022-12-10T00:49:38;965.85;;;18.56;38.99
27888;BME280;15237;49.608;7.170;2022-12-10T00:50:21;965.87;;;18.53;39.03
27888;BME280;15237;49.608;7.170;2022-12-10T00:51:46;965.85;;;18.53;39.05
27888;BME280;15237;49.608;7.170;2022-12-10T00:52:28;965.87;;;18.55;39.00
27888;BME280;15237;49.608;7.170;2022-12-10T00:53:12;965.87;;;18.59;38.93
27888;BME280;15237;49.608;7.170;2022-12-10T00:53:58;965.86;;;18.53;39.05
27888;BME280;15237;49.608;7.170;2022-12-10T00:54:39;965.86;;;18.52;39.06
27888;BME280;15237;49.608;7.170;2022-12-10T00:55:22;965.89;;;18.54;39.01
27888;BME280;15237;49.608;7.170;2022-12-10T00:56:04;965.87;;;18.57;38.96
27888;BME280;15237;49.608;7.170;2022-12-10T00:56:49;965.88;;;18.57;38.94
27888;BME280;15237;49.608;7.170;2022-12-10T00:57:35;965.87;;;18.54;39.00
27888;BME280;15237;49.608;7.170;2022-12-10T00:58:18;965.89;;;18.55;38.96
27888;BME280;15237;49.608;7.170;2022-12-10T00:58:58;965.88;;;18.57;38.96
27888;BME280;15237;49.608;7.170;2022-12-10T00:59:42;965.87;;;18.52;39.02
27888;BME280;15237;49.608;7.170;2022-12-10T01:00:29;965.87;;;18.49;39.07
27888;BME280;15237;49.608;7.170;2022-12-10T01:02:01;965.92;;;18.50;39.07
27888;BME280;15237;49.608;7.170;2022-12-10T01:02:45;965.95;;;18.49;39.09
27888;BME280;15237;49.608;7.170;2022-12-10T01:03:26;965.93;;;18.54;38.99
27888;BME280;15237;49.608;7.170;2022-12-10T01:04:14;965.96;;;18.54;38.97
27888;BME280;15237;49.608;7.170;2022-12-10T01:04:55;965.94;;;18.58;38.93
27888;BME280;15237;49.608;7.170;2022-12-10T01:05:37;965.97;;;18.58;38.91
27888;BME280;15237;49.608;7.170;2022-12-10T01:06:21;965.96;;;18.58;38.90
27888;BME280;15237;49.608;7.170;2022-12-10T01:07:08;965.97;;;18.59;38.90
27888;BME280;15237;49.608;7.170;2022-12-10T01:07:53;965.98;;;18.62;38.83
27888;BME280;15237;49.608;7.170;2022-12-10T01:08:32;965.99;;;18.64;38.78
27888;BME280;15237;49.608;7.170;2022-12-10T01:09:18;966.00;;;18.64;38.77
27888;BME280;15237;49.608;7.170;2022-12-10T01:10:03;966.01;;;18.61;38.84
27888;BME280;15237;49.608;7.170;2022-12-10T01:10:53;966.04;;;18.66;38.75
27888;BME280;15237;49.608;7.170;2022-12-10T01:11:38;966.04;;;18.62;38.83
27888;BME280;15237;49.608;7.170;2022-12-10T01:12:20;966.07;;;18.58;38.90
27888;BME280;15237;49.608;7.170;2022-12-10T01:13:05;966.10;;;18.61;38.85
27888;BME280;15237;49.608;7.170;2022-12-10T01:13:51;966.10;;;18.63;38.79
27888;BME280;15237;49.608;7.170;2022-12-10T01:14:35;966.12;;;18.61;38.83
27888;BME280;15237;49.608;7.170;2022-12-10T01:15:18;966.13;;;18.60;38.85
27888;BME280;15237;49.608;7.170;2022-12-10T01:16:04;966.15;;;18.61;38.81
27888;BME280;15237;49.608;7.170;2022-12-10T01:16:53;966.16;;;18.61;38.84
27888;BME280;15237;49.608;7.170;2022-12-10T01:17:38;966.18;;;18.58;38.87
27888;BME280;15237;49.608;7.170;2022-12-10T01:18:21;966.21;;;18.63;38.79
27888;BME280;15237;49.608;7.170;2022-12-10T01:19:04;966.21;;;18.61;38.81
27888;BME280;15237;49.608;7.170;2022-12-10T01:19:47;966.20;;;18.60;38.83
27888;BME280;15237;49.608;7.170;2022-12-10T01:20:36;966.21;;;18.61;38.81
27888;BME280;15237;49.608;7.170;2022-12-10T01:21:19;966.22;;;18.63;38.78
27888;BME280;15237;49.608;7.170;2022-12-10T01:22:06;966.23;;;18.63;38.75
27888;BME280;15237;49.608;7.170;2022-12-10T01:22:50;966.25;;;18.63;38.78
27888;BME280;15237;49.608;7.170;2022-12-10T01:23:37;966.25;;;18.62;38.79
27888;BME280;15237;49.608;7.170;2022-12-10T01:24:24;966.27;;;18.63;38.75
27888;BME280;15237;49.608;7.170;2022-12-10T01:25:08;966.26;;;18.59;38.83
27888;BME280;15237;49.608;7.170;2022-12-10T01:26:03;966.27;;;18.60;38.81
27888;BME280;15237;49.608;7.170;2022-12-10T01:26:44;966.29;;;18.63;38.74
27888;BME280;15237;49.608;7.170;2022-12-10T01:27:24;966.27;;;18.64;38.76
27888;BME280;15237;49.608;7.170;2022-12-10T01:28:09;966.30;;;18.66;38.71
27888;BME280;15237;49.608;7.170;2022-12-10T01:28:53;966.28;;;18.61;38.78
27888;BME280;15237;49.608;7.170;2022-12-10T01:29:38;966.30;;;18.69;38.65
27888;BME280;15237;49.608;7.170;2022-12-10T01:30:21;966.31;;;18.67;38.65
27888;BME280;15237;49.608;7.170;2022-12-10T01:31:06;966.30;;;18.66;38.71
27888;BME280;15237;49.608;7.170;2022-12-10T01:31:51;966.30;;;18.63;38.75
27888;BME280;15237;49.608;7.170;2022-12-10T01:32:37;966.29;;;18.68;38.64
27888;BME280;15237;49.608;7.170;2022-12-10T01:33:16;966.31;;;18.67;38.67
27888;BME280;15237;49.608;7.170;2022-12-10T01:34:02;966.29;;;18.64;38.70
27888;BME280;15237;49.608;7.170;2022-12-10T01:34:47;966.32;;;18.64;38.74
27888;BME280;15237;49.608;7.170;2022-12-10T01:35:28;966.32;;;18.67;38.65
27888;BME280;15237;49.608;7.170;2022-12-10T01:36:12;966.31;;;18.66;38.67
27888;BME280;15237;49.608;7.170;2022-12-10T01:36:58;966.34;;;18.64;38.70
27888;BME280;15237;49.608;7.170;2022-12-10T01:37:40;966.35;;;18.65;38.67
27888;BME280;15237;49.608;7.170;2022-12-10T01:38:23;966.35;;;18.65;38.68
27888;BME280;15237;49.608;7.170;2022-12-10T01:39:09;966.39;;;18.66;38.66
27888;BME280;15237;49.608;7.170;2022-12-10T01:39:54;966.36;;;18.62;38.72
27888;BME280;15237;49.608;7.170;2022-12-10T01:40:39;966.35;;;18.60;38.77
27888;BME280;15237;49.608;7.170;2022-12-10T01:41:31;966.35;;;18.58;38.80
27888;BME280;15237;49.608;7.170;2022-12-10T01:42:13;966.37;;;18.55;38.87
27888;BME280;15237;49.608;7.170;2022-12-10T01:42:56;966.35;;;18.60;38.77
27888;BME280;15237;49.608;7.170;2022-12-10T01:45:04;966.35;;;18.62;38.72
27888;BME280;15237;49.608;7.170;2022-12-10T01:45:49;966.35;;;18.57;38.80
27888;BME280;15237;49.608;7.170;2022-12-10T01:46:32;966.36;;;18.56;38.82
27888;BME280;15237;49.608;7.170;2022-12-10T01:47:17;966.38;;;18.58;38.78
27888;BME280;15237;49.608;7.170;2022-12-10T01:48:03;966.36;;;18.56;38.82
27888;BME280;15237;49.608;7.170;2022-12-10T01:48:49;966.37;;;18.60;38.74
27888;BME280;15237;49.608;7.170;2022-12-10T01:49:35;966.38;;;18.61;38.72
27888;BME280;15237;49.608;7.170;2022-12-10T01:50:20;966.36;;;18.64;38.67
27888;BME280;15237;49.608;7.170;2022-12-10T01:51:06;966.38;;;18.62;38.72
27888;BME280;15237;49.608;7.170;2022-12-10T01:51:52;966.37;;;18.64;38.67
27888;BME280;15237;49.608;7.170;2022-12-10T01:52:35;966.39;;;18.62;38.69
27888;BME280;15237;49.608;7.170;2022-12-10T01:53:19;966.38;;;18.60;38.73
27888;BME280;15237;49.608;7.170;2022-12-10T01:54:06;966.40;;;18.56;38.81
27888;BME280;15237;49.608;7.170;2022-12-10T01:54:54;966.41;;;18.54;38.85
27888;BME280;15237;49.608;7.170;2022-12-10T01:56:23;966.43;;;18.57;38.79
27888;BME280;15237;49.608;7.170;2022-12-10T01:57:59;966.45;;;18.55;38.80
27888;BME280;15237;49.608;7.170;2022-12-10T01:58:42;966.44;;;18.52;38.89
27888;BME280;15237;49.608;7.170;2022-12-10T01:59:25;966.43;;;18.53;38.86
27888;BME280;15237;49.608;7.170;2022-12-10T02:00:09;966.42;;;18.50;38.90
27888;BME280;15237;49.608;7.170;2022-12-10T02:00:59;966.43;;;18.49;38.94
27888;BME280;15237;49.608;7.170;2022-12-10T02:02:34;966.45;;;18.57;38.81
27888;BME280;15237;49.608;7.170;2022-12-10T02:03:20;966.46;;;18.52;38.88
27888;BME280;15237;49.608;7.170;2022-12-10T02:04:13;966.46;;;18.55;38.81
27888;BME280;15237;49.608;7.170;2022-12-10T02:05:02;966.46;;;18.55;38.80
27888;BME280;15237;49.608;7.170;2022-12-10T02:05:51;966.47;;;18.59;38.73
27888;BME280;15237;49.608;7.170;2022-12-10T02:09:44;966.47;;;18.52;38.84
27888;BME280;15237;49.608;7.170;2022-12-10T02:11:22;966.47;;;18.47;38.93
27888;BME280;15237;49.608;7.170;2022-12-10T02:13:42;966.49;;;18.49;38.90
27888;BME280;15237;49.608;7.170;2022-12-10T02:15:16;966.49;;;18.46;38.96
27888;BME280;15237;49.608;7.170;2022-12-10T02:16:46;966.46;;;18.49;38.90
27888;BME280;15237;49.608;7.170;2022-12-10T02:18:26;966.46;;;18.52;38.86
27888;BME280;15237;49.608;7.170;2022-12-10T02:19:58;966.44;;;18.49;38.89
27888;BME280;15237;49.608;7.170;2022-12-10T02:20:46;966.42;;;18.48;38.91
27888;BME280;15237;49.608;7.170;2022-12-10T02:21:32;966.40;;;18.45;38.95
27888;BME280;15237;49.608;7.170;2022-12-10T02:22:11;966.43;;;18.51;38.83
27888;BME280;15237;49.608;7.170;2022-12-10T02:23:45;966.41;;;18.52;38.82
27888;BME280;15237;49.608;7.170;2022-12-10T02:24:29;966.43;;;18.52;38.84
27888;BME280;15237;49.608;7.170;2022-12-10T02:25:17;966.46;;;18.57;38.71
27888;BME280;15237;49.608;7.170;2022-12-10T02:26:58;966.46;;;18.49;38.89
27888;BME280;15237;49.608;7.170;2022-12-10T02:27:46;966.45;;;18.51;38.83
27888;BME280;15237;49.608;7.170;2022-12-10T02:29:20;966.45;;;18.54;38.78
27888;BME280;15237;49.608;7.170;2022-12-10T02:30:10;966.47;;;18.52;38.81
27888;BME280;15237;49.608;7.170;2022-12-10T02:30:55;966.44;;;18.50;38.84
27888;BME280;15237;49.608;7.170;2022-12-10T02:31:40;966.45;;;18.49;38.89
27888;BME280;15237;49.608;7.170;2022-12-10T02:32:22;966.47;;;18.53;38.78
27888;BME280;15237;49.608;7.170;2022-12-10T02:33:07;966.48;;;18.50;38.83
27888;BME280;15237;49.608;7.170;2022-12-10T02:33:55;966.48;;;18.52;38.80
27888;BME280;15237;49.608;7.170;2022-12-10T02:34:39;966.48;;;18.56;38.73
27888;BME280;15237;49.608;7.170;2022-12-10T02:35:26;966.46;;;18.53;38.80
27888;BME280;15237;49.608;7.170;2022-12-10T02:36:12;966.46;;;18.54;38.75
27888;BME280;15237;49.608;7.170;2022-12-10T02:36:55;966.44;;;18.52;38.81
27888;BME280;15237;49.608;7.170;2022-12-10T02:37:45;966.43;;;18.54;38.75
27888;BME280;15237;49.608;7.170;2022-12-10T02:38:32;966.42;;;18.51;38.80
27888;BME280;15237;49.608;7.170;2022-12-10T02:39:20;966.42;;;18.52;38.79
27888;BME280;15237;49.608;7.170;2022-12-10T02:40:06;966.43;;;18.52;38.77
27888;BME280;15237;49.608;7.170;2022-12-10T02:41:01;966.43;;;18.59;38.65
27888;BME280;15237;49.608;7.170;2022-12-10T02:41:46;966.40;;;18.52;38.79
27888;BME280;15237;49.608;7.170;2022-12-10T02:42:32;966.41;;;18.53;38.80
27888;BME280;15237;49.608;7.170;2022-12-10T02:43:14;966.42;;;18.55;38.73
27888;BME280;15237;49.608;7.170;2022-12-10T02:44:00;966.44;;;18.54;38.73
27888;BME280;15237;49.608;7.170;2022-12-10T02:44:43;966.42;;;18.52;38.77
27888;BME280;15237;49.608;7.170;2022-12-10T02:45:31;966.40;;;18.48;38.85
27888;BME280;15237;49.608;7.170;2022-12-10T02:46:11;966.42;;;18.46;38.87
27888;BME280;15237;49.608;7.170;2022-12-10T02:46:55;966.41;;;18.48;38.85
27888;BME280;15237;49.608;7.170;2022-12-10T02:47:40;966.42;;;18.48;38.83
27888;BME280;15237;49.608;7.170;2022-12-10T02:48:25;966.44;;;18.54;38.73
27888;BME280;15237;49.608;7.170;2022-12-10T02:49:11;966.43;;;18.52;38.82
27888;BME280;15237;49.608;7.170;2022-12-10T02:49:53;966.46;;;18.55;38.72
27888;BME280;15237;49.608;7.170;2022-12-10T02:50:39;966.44;;;18.52;38.76
27888;BME280;15237;49.608;7.170;2022-12-10T02:51:22;966.44;;;18.45;38.88
27888;BME280;15237;49.608;7.170;2022-12-10T02:52:10;966.41;;;18.44;38.88
27888;BME280;15237;49.608;7.170;2022-12-10T02:52:57;966.41;;;18.49;38.80
27888;BME280;15237;49.608;7.170;2022-12-10T02:55:13;966.40;;;18.49;38.82
27888;BME280;15237;49.608;7.170;2022-12-10T02:55:57;966.38;;;18.46;38.83
27888;BME280;15237;49.608;7.170;2022-12-10T02:56:48;966.40;;;18.48;38.81
27888;BME280;15237;49.608;7.170;2022-12-10T02:57:36;966.38;;;18.47;38.82
27888;BME280;15237;49.608;7.170;2022-12-10T02:58:27;966.38;;;18.46;38.86
27888;BME280;15237;49.608;7.170;2022-12-10T03:01:02;966.40;;;18.48;38.85
27888;BME280;15237;49.608;7.170;2022-12-10T03:01:33;966.39;;;18.49;38.80
27888;BME280;15237;49.608;7.170;2022-12-10T03:02:25;966.38;;;18.47;38.82
27888;BME280;15237;49.608;7.170;2022-12-10T03:03:25;966.40;;;18.52;38.72
27888;BME280;15237;49.608;7.170;2022-12-10T03:04:39;966.39;;;18.47;38.81
27888;BME280;15237;49.608;7.170;2022-12-10T03:05:33;966.38;;;18.44;38.91
27888;BME280;15237;49.608;7.170;2022-12-10T03:07:02;966.38;;;18.42;38.91
27888;BME280;15237;49.608;7.170;2022-12-10T03:07:53;966.39;;;18.42;38.89
27888;BME280;15237;49.608;7.170;2022-12-10T03:08:40;966.39;;;18.42;38.93
27888;BME280;15237;49.608;7.170;2022-12-10T03:09:34;966.37;;;18.43;38.88
27888;BME280;15237;49.608;7.170;2022-12-10T03:11:57;966.36;;;18.43;38.89
27888;BME280;15237;49.608;7.170;2022-12-10T03:12:43;966.35;;;18.42;38.95
27888;BME280;15237;49.608;7.170;2022-12-10T03:13:29;966.33;;;18.42;38.87
27888;BME280;15237;49.608;7.170;2022-12-10T03:14:19;966.33;;;18.40;38.92
27888;BME280;15237;49.608;7.170;2022-12-10T03:15:07;966.32;;;18.38;38.98
27888;BME280;15237;49.608;7.170;2022-12-10T03:15:54;966.33;;;18.41;38.91
27888;BME280;15237;49.608;7.170;2022-12-10T03:16:42;966.32;;;18.39;38.92
27888;BME280;15237;49.608;7.170;2022-12-10T03:17:28;966.33;;;18.39;38.92
27888;BME280;15237;49.608;7.170;2022-12-10T03:18:13;966.34;;;18.40;38.93
27888;BME280;15237;49.608;7.170;2022-12-10T03:19:00;966.34;;;18.39;38.95
27888;BME280;15237;49.608;7.170;2022-12-10T03:19:44;966.34;;;18.40;38.93
27888;BME280;15237;49.608;7.170;2022-12-10T03:20:37;966.32;;;18.36;39.02
27888;BME280;15237;49.608;7.170;2022-12-10T03:21:20;966.31;;;18.38;38.97
27888;BME280;15237;49.608;7.170;2022-12-10T03:22:04;966.32;;;18.42;38.90
27888;BME280;15237;49.608;7.170;2022-12-10T03:22:50;966.31;;;18.37;39.02
27888;BME280;15237;49.608;7.170;2022-12-10T03:23:35;966.29;;;18.35;39.00
27888;BME280;15237;49.608;7.170;2022-12-10T03:24:21;966.28;;;18.34;39.04
27888;BME280;15237;49.608;7.170;2022-12-10T03:25:07;966.29;;;18.38;38.93
27888;BME280;15237;49.608;7.170;2022-12-10T03:25:51;966.27;;;18.37;38.97
27888;BME280;15237;49.608;7.170;2022-12-10T03:26:40;966.28;;;18.36;39.01
27888;BME280;15237;49.608;7.170;2022-12-10T03:27:27;966.28;;;18.35;39.02
27888;BME280;15237;49.608;7.170;2022-12-10T03:28:14;966.27;;;18.34;39.05
27888;BME280;15237;49.608;7.170;2022-12-10T03:29:02;966.28;;;18.30;39.10
27888;BME280;15237;49.608;7.170;2022-12-10T03:29:48;966.26;;;18.29;39.09
27888;BME280;15237;49.608;7.170;2022-12-10T03:30:32;966.26;;;18.29;39.14
27888;BME280;15237;49.608;7.170;2022-12-10T03:31:17;966.27;;;18.30;39.08
27888;BME280;15237;49.608;7.170;2022-12-10T03:32:00;966.28;;;18.30;39.12
27888;BME280;15237;49.608;7.170;2022-12-10T03:32:44;966.26;;;18.30;39.11
27888;BME280;15237;49.608;7.170;2022-12-10T03:33:27;966.24;;;18.27;39.14
27888;BME280;15237;49.608;7.170;2022-12-10T03:34:11;966.26;;;18.30;39.12
27888;BME280;15237;49.608;7.170;2022-12-10T03:34:56;966.28;;;18.34;39.03
27888;BME280;15237;49.608;7.170;2022-12-10T03:35:44;966.27;;;18.36;39.01
27888;BME280;15237;49.608;7.170;2022-12-10T03:36:28;966.28;;;18.33;39.04
27888;BME280;15237;49.608;7.170;2022-12-10T03:37:15;966.26;;;18.31;39.06
27888;BME280;15237;49.608;7.170;2022-12-10T03:38:00;966.30;;;18.33;39.07
27888;BME280;15237;49.608;7.170;2022-12-10T03:38:45;966.31;;;18.33;39.02
27888;BME280;15237;49.608;7.170;2022-12-10T03:39:34;966.29;;;18.32;39.06
27888;BME280;15237;49.608;7.170;2022-12-10T03:40:21;966.32;;;18.35;39.01
27888;BME280;15237;49.608;7.170;2022-12-10T03:41:07;966.30;;;18.32;39.03
27888;BME280;15237;49.608;7.170;2022-12-10T03:41:48;966.33;;;18.28;39.09
27888;BME280;15237;49.608;7.170;2022-12-10T03:42:36;966.32;;;18.33;39.03
27888;BME280;15237;49.608;7.170;2022-12-10T03:43:21;966.33;;;18.32;39.05
27888;BME280;15237;49.608;7.170;2022-12-10T03:44:06;966.35;;;18.31;39.06
27888;BME280;15237;49.608;7.170;2022-12-10T03:44:50;966.37;;;18.35;39.03
27888;BME280;15237;49.608;7.170;2022-12-10T03:45:34;966.36;;;18.29;39.10
27888;BME280;15237;49.608;7.170;2022-12-10T03:46:18;966.37;;;18.35;39.01
27888;BME280;15237;49.608;7.170;2022-12-10T03:47:09;966.37;;;18.30;39.10
27888;BME280;15237;49.608;7.170;2022-12-10T03:47:54;966.36;;;18.29;39.12
27888;BME280;15237;49.608;7.170;2022-12-10T03:48:44;966.37;;;18.28;39.14
27888;BME280;15237;49.608;7.170;2022-12-10T03:49:28;966.36;;;18.31;39.07
27888;BME280;15237;49.608;7.170;2022-12-10T03:50:12;966.36;;;18.29;39.09
27888;BME280;15237;49.608;7.170;2022-12-10T03:50:55;966.37;;;18.31;39.08
27888;BME280;15237;49.608;7.170;2022-12-10T03:51:39;966.35;;;18.29;39.07
27888;BME280;15237;49.608;7.170;2022-12-10T03:52:23;966.35;;;18.30;39.08
27888;BME280;15237;49.608;7.170;2022-12-10T03:53:07;966.35;;;18.30;39.12
27888;BME280;15237;49.608;7.170;2022-12-10T03:53:46;966.37;;;18.31;39.04
27888;BME280;15237;49.608;7.170;2022-12-10T03:54:31;966.39;;;18.32;39.07
27888;BME280;15237;49.608;7.170;2022-12-10T03:55:14;966.36;;;18.33;39.01
27888;BME280;15237;49.608;7.170;2022-12-10T03:55:56;966.37;;;18.27;39.14
27888;BME280;15237;49.608;7.170;2022-12-10T03:56:39;966.37;;;18.23;39.20
27888;BME280;15237;49.608;7.170;2022-12-10T03:57:23;966.38;;;18.23;39.20
27888;BME280;15237;49.608;7.170;2022-12-10T03:58:06;966.38;;;18.29;39.10
27888;BME280;15237;49.608;7.170;2022-12-10T03:58:51;966.39;;;18.28;39.14
27888;BME280;15237;49.608;7.170;2022-12-10T03:59:35;966.38;;;18.37;38.94
27888;BME280;15237;49.608;7.170;2022-12-10T04:00:19;966.40;;;18.37;38.95
27888;BME280;15237;49.608;7.170;2022-12-10T04:01:03;966.40;;;18.37;38.95
27888;BME280;15237;49.608;7.170;2022-12-10T04:01:46;966.40;;;18.37;38.93
27888;BME280;15237;49.608;7.170;2022-12-10T04:02:30;966.38;;;18.34;38.98
27888;BME280;15237;49.608;7.170;2022-12-10T04:03:14;966.39;;;18.34;39.00
27888;BME280;15237;49.608;7.170;2022-12-10T04:04:00;966.37;;;18.30;39.09
27888;BME280;15237;49.608;7.170;2022-12-10T04:04:44;966.39;;;18.32;39.04
27888;BME280;15237;49.608;7.170;2022-12-10T04:05:30;966.37;;;18.32;39.03
27888;BME280;15237;49.608;7.170;2022-12-10T04:06:16;966.37;;;18.30;39.10
27888;BME280;15237;49.608;7.170;2022-12-10T04:06:58;966.39;;;18.28;39.09
27888;BME280;15237;49.608;7.170;2022-12-10T04:07:39;966.39;;;18.33;39.03
27888;BME280;15237;49.608;7.170;2022-12-10T04:08:21;966.40;;;18.35;38.96
27888;BME280;15237;49.608;7.170;2022-12-10T04:09:05;966.41;;;18.33;39.03
27888;BME280;15237;49.608;7.170;2022-12-10T04:09:46;966.42;;;18.32;39.04
27888;BME280;15237;49.608;7.170;2022-12-10T04:10:36;966.43;;;18.33;39.02
27888;BME280;15237;49.608;7.170;2022-12-10T04:11:17;966.44;;;18.30;39.08
27888;BME280;15237;49.608;7.170;2022-12-10T04:11:58;966.44;;;18.26;39.15
27888;BME280;15237;49.608;7.170;2022-12-10T04:12:45;966.45;;;18.24;39.18
27888;BME280;15237;49.608;7.170;2022-12-10T04:13:30;966.45;;;18.32;39.06
27888;BME280;15237;49.608;7.170;2022-12-10T04:14:12;966.48;;;18.31;39.06
27888;BME280;15237;49.608;7.170;2022-12-10T04:14:56;966.49;;;18.32;39.06
27888;BME280;15237;49.608;7.170;2022-12-10T04:15:39;966.48;;;18.34;38.98
27888;BME280;15237;49.608;7.170;2022-12-10T04:16:23;966.48;;;18.31;39.03
27888;BME280;15237;49.608;7.170;2022-12-10T04:17:10;966.49;;;18.29;39.10
27888;BME280;15237;49.608;7.170;2022-12-10T04:17:52;966.50;;;18.28;39.13
27888;BME280;15237;49.608;7.170;2022-12-10T04:18:36;966.49;;;18.29;39.09
27888;BME280;15237;49.608;7.170;2022-12-10T04:19:21;966.50;;;18.27;39.16
27888;BME280;15237;49.608;7.170;2022-12-10T04:20:07;966.51;;;18.30;39.07
27888;BME280;15237;49.608;7.170;2022-12-10T04:20:52;966.51;;;18.31;39.07
27888;BME280;15237;49.608;7.170;2022-12-10T04:21:39;966.54;;;18.31;39.06
27888;BME280;15237;49.608;7.170;2022-12-10T04:22:25;966.52;;;18.29;39.09
27888;BME280;15237;49.608;7.170;2022-12-10T04:23:12;966.52;;;18.26;39.14
27888;BME280;15237;49.608;7.170;2022-12-10T04:23:55;966.52;;;18.30;39.11
27888;BME280;15237;49.608;7.170;2022-12-10T04:24:39;966.56;;;18.32;39.07
27888;BME280;15237;49.608;7.170;2022-12-10T04:25:22;966.53;;;18.32;39.05
27888;BME280;15237;49.608;7.170;2022-12-10T04:26:07;966.55;;;18.33;39.03
27888;BME280;15237;49.608;7.170;2022-12-10T04:26:52;966.56;;;18.30;39.08
27888;BME280;15237;49.608;7.170;2022-12-10T04:27:42;966.57;;;18.26;39.10
27888;BME280;15237;49.608;7.170;2022-12-10T04:28:27;966.57;;;18.29;39.08
27888;BME280;15237;49.608;7.170;2022-12-10T04:29:07;966.60;;;18.32;39.01